Stoke Newington, United Kingdom
Current Conditions -  °F | °C
As of 7:20 AM on Thursday 23 Oct 2014 (Local Time) from EGLC Reporting Station
Broken Clouds Broken Clouds  
Wind Chill: 55°   Ceiling: 2900
Heat Index: 55°   Visibility: 6mi
Dew Point: 45°   Wind: 8mph
Humidity: 67%   Direction: 220°SW
Pressure: 30.15"   Gusts: NA
Location:  51.56°N, 0.08°W
Report Text: EGLC 230620Z 22007KT 9999 BKN029 13/07 Q1021
Loading
Personal Weather Stations






























Interactive Weather Map
Tropical Storm Tracking
New forecast layout! Learn more

10-Day Weather Forecast

Advertisements
Track Severe Weather on mobile